createdAt,value
2019-04-06T00:00:19.290Z,28.00
2019-04-06T00:01:19.277Z,28.00
2019-04-06T00:02:19.277Z,28.00
2019-04-06T00:03:19.263Z,28.00
2019-04-06T00:04:19.257Z,28.00
2019-04-06T00:05:19.255Z,28.00
2019-04-06T00:06:19.242Z,28.00
2019-04-06T00:07:19.239Z,24.00
2019-04-06T00:08:19.228Z,28.00
2019-04-06T00:09:19.225Z,28.00
2019-04-06T00:10:19.280Z,28.00
2019-04-06T00:11:19.213Z,24.00
2019-04-06T00:12:19.206Z,28.00
2019-04-06T00:13:19.202Z,28.00
2019-04-06T00:14:19.189Z,28.00
2019-04-06T00:15:19.179Z,28.00
2019-04-06T00:16:19.170Z,32.00
2019-04-06T00:17:19.167Z,32.00
2019-04-06T00:18:19.165Z,32.00
2019-04-06T00:19:19.153Z,32.00
2019-04-06T00:20:19.154Z,32.00
2019-04-06T00:21:19.146Z,28.00
2019-04-06T00:22:19.127Z,24.00
2019-04-06T00:23:19.143Z,24.00
2019-04-06T00:24:19.114Z,28.00
2019-04-06T00:25:19.107Z,28.00
2019-04-06T00:26:19.102Z,32.00
2019-04-06T00:27:19.089Z,28.00
2019-04-06T00:28:19.124Z,28.00
2019-04-06T00:29:19.124Z,28.00
2019-04-06T00:30:19.073Z,32.00
2019-04-06T00:31:19.066Z,32.00
2019-04-06T00:32:19.058Z,32.00
2019-04-06T00:33:19.054Z,32.00
2019-04-06T00:34:19.042Z,32.00
2019-04-06T00:35:19.040Z,32.00
2019-04-06T00:36:19.033Z,32.00
2019-04-06T00:37:19.020Z,32.00
2019-04-06T00:38:19.013Z,32.00
2019-04-06T00:39:19.008Z,32.00
2019-04-06T00:40:18.996Z,32.00
2019-04-06T00:41:18.993Z,32.00
2019-04-06T00:42:18.979Z,32.00
2019-04-06T00:43:18.974Z,32.00
2019-04-06T00:44:18.965Z,36.00
2019-04-06T00:45:18.966Z,36.00
2019-04-06T00:46:18.958Z,36.00
2019-04-06T00:47:18.963Z,36.00
2019-04-06T00:48:18.949Z,40.00
2019-04-06T00:49:18.936Z,40.00
2019-04-06T00:50:18.933Z,40.00
2019-04-06T00:51:18.917Z,44.00
2019-04-06T00:52:18.913Z,44.00
2019-04-06T00:53:18.908Z,44.00
2019-04-06T00:54:18.897Z,44.00
2019-04-06T00:55:18.884Z,44.00
2019-04-06T00:56:18.891Z,44.00
2019-04-06T00:57:18.874Z,44.00
2019-04-06T00:58:18.867Z,44.00
2019-04-06T00:59:18.858Z,40.00
2019-04-06T01:00:18.856Z,44.00
2019-04-06T01:01:18.845Z,44.00
2019-04-06T01:02:18.841Z,52.00
2019-04-06T01:03:18.840Z,52.00
2019-04-06T01:04:18.837Z,52.00
2019-04-06T01:05:18.823Z,52.00
2019-04-06T01:06:18.818Z,52.00
2019-04-06T01:07:18.803Z,52.00
2019-04-06T01:08:18.793Z,48.00
2019-04-06T01:09:18.905Z,44.00
2019-04-06T01:10:18.778Z,48.00
2019-04-06T01:11:18.778Z,48.00
2019-04-06T01:12:18.766Z,44.00
2019-04-06T01:13:18.758Z,40.00
2019-04-06T01:14:18.757Z,40.00
2019-04-06T01:15:18.741Z,40.00
2019-04-06T01:16:18.739Z,40.00
2019-04-06T01:17:18.737Z,40.00
2019-04-06T01:18:18.726Z,44.00
2019-04-06T01:19:18.712Z,44.00
2019-04-06T01:20:18.704Z,48.00
2019-04-06T01:21:18.734Z,48.00
2019-04-06T01:22:18.698Z,48.00
2019-04-06T01:23:18.691Z,52.00
2019-04-06T01:24:18.675Z,48.00
2019-04-06T01:25:18.721Z,52.00
2019-04-06T01:26:18.670Z,60.00
2019-04-06T01:27:18.658Z,60.00
2019-04-06T01:28:18.668Z,72.00
2019-04-06T01:29:18.648Z,72.00
2019-04-06T01:30:18.628Z,68.00
2019-04-06T01:31:18.626Z,72.00
2019-04-06T01:32:18.625Z,72.00
2019-04-06T01:33:18.608Z,76.00
2019-04-06T01:34:18.612Z,84.00
2019-04-06T01:35:18.604Z,84.00
2019-04-06T01:36:18.607Z,84.00
2019-04-06T01:37:18.590Z,84.00
2019-04-06T01:38:18.576Z,84.00
2019-04-06T01:39:18.568Z,76.00
2019-04-06T01:40:18.556Z,72.00
2019-04-06T01:41:18.554Z,68.00
2019-04-06T01:42:18.620Z,72.00
2019-04-06T01:43:18.540Z,80.00
2019-04-06T01:44:18.530Z,92.00
2019-04-06T01:45:18.542Z,88.00
2019-04-06T01:46:18.530Z,88.00
2019-04-06T01:47:18.515Z,80.00
2019-04-06T01:48:18.526Z,76.00
2019-04-06T01:49:18.547Z,72.00
2019-04-06T01:50:18.506Z,72.00
2019-04-06T01:51:18.481Z,68.00
2019-04-06T01:52:18.481Z,64.00
2019-04-06T01:53:18.473Z,64.00
2019-04-06T01:54:18.458Z,64.00
2019-04-06T01:55:18.458Z,64.00
2019-04-06T01:56:19.107Z,60.00
2019-04-06T01:57:18.447Z,60.00
2019-04-06T01:58:18.436Z,56.00
2019-04-06T01:59:18.431Z,56.00
2019-04-06T02:00:18.424Z,56.00
2019-04-06T02:01:18.413Z,56.00
2019-04-06T02:02:18.403Z,56.00
2019-04-06T02:03:18.390Z,60.00
2019-04-06T02:04:18.392Z,64.00
2019-04-06T02:05:18.380Z,68.00
2019-04-06T02:06:18.373Z,72.00
2019-04-06T02:07:18.370Z,64.00
2019-04-06T02:08:18.366Z,64.00
2019-04-06T02:09:18.351Z,60.00
2019-04-06T02:10:18.345Z,64.00
2019-04-06T02:11:18.341Z,68.00
2019-04-06T02:12:18.349Z,72.00
2019-04-06T02:13:18.326Z,68.00
2019-04-06T02:14:18.348Z,64.00
2019-04-06T02:15:18.310Z,64.00
2019-04-06T02:16:18.317Z,64.00
2019-04-06T02:17:18.288Z,60.00
2019-04-06T02:18:18.290Z,56.00
2019-04-06T02:19:18.284Z,56.00
2019-04-06T02:20:18.226Z,48.00
2019-04-06T02:21:18.264Z,44.00
2019-04-06T02:22:18.249Z,44.00
2019-04-06T02:23:18.253Z,40.00
2019-04-06T02:24:18.251Z,40.00
2019-04-06T02:25:18.237Z,36.00
2019-04-06T02:26:29.061Z,40.00
2019-04-06T02:27:18.316Z,44.00
2019-04-06T02:28:18.206Z,44.00
2019-04-06T02:29:18.209Z,48.00
2019-04-06T02:30:18.212Z,48.00
2019-04-06T02:31:18.192Z,48.00
2019-04-06T02:32:18.188Z,52.00
2019-04-06T02:33:18.173Z,52.00
2019-04-06T02:34:18.268Z,52.00
2019-04-06T02:35:18.181Z,48.00
2019-04-06T02:36:18.169Z,48.00
2019-04-06T02:37:18.143Z,48.00
2019-04-06T02:38:18.149Z,44.00
2019-04-06T02:39:18.266Z,44.00
2019-04-06T02:40:18.134Z,40.00
2019-04-06T02:41:18.120Z,40.00
2019-04-06T02:42:18.124Z,40.00
2019-04-06T02:43:18.108Z,44.00
2019-04-06T02:44:18.337Z,40.00
2019-04-06T02:45:18.100Z,48.00
2019-04-06T02:46:18.100Z,44.00
2019-04-06T02:47:18.080Z,44.00
2019-04-06T02:48:18.074Z,44.00
2019-04-06T02:49:18.063Z,44.00
2019-04-06T02:50:18.059Z,40.00
2019-04-06T02:51:18.055Z,44.00
2019-04-06T02:52:18.111Z,40.00
2019-04-06T02:53:18.034Z,44.00
2019-04-06T02:54:18.020Z,48.00
2019-04-06T02:55:18.024Z,52.00
2019-04-06T02:56:18.020Z,48.00
2019-04-06T02:57:18.002Z,48.00
2019-04-06T02:58:17.998Z,48.00
2019-04-06T02:59:17.999Z,44.00
2019-04-06T03:00:17.991Z,44.00
2019-04-06T03:01:17.975Z,44.00
2019-04-06T03:02:17.967Z,44.00
2019-04-06T03:03:18.006Z,40.00
2019-04-06T03:04:17.955Z,36.00
2019-04-06T03:05:17.953Z,36.00
2019-04-06T03:06:17.951Z,36.00
2019-04-06T03:07:17.931Z,32.00
2019-04-06T03:08:17.926Z,36.00
2019-04-06T03:09:17.924Z,36.00
2019-04-06T03:10:17.964Z,36.00
2019-04-06T03:11:17.905Z,40.00
2019-04-06T03:12:17.896Z,40.00
2019-04-06T03:13:17.887Z,40.00
2019-04-06T03:14:17.886Z,40.00
2019-04-06T03:15:18.080Z,40.00
2019-04-06T03:16:17.869Z,36.00
2019-04-06T03:17:17.863Z,36.00
2019-04-06T03:18:17.851Z,40.00
2019-04-06T03:19:17.841Z,36.00
2019-04-06T03:20:17.844Z,40.00
2019-04-06T03:21:17.854Z,40.00
2019-04-06T03:22:17.824Z,36.00
2019-04-06T03:23:17.826Z,40.00
2019-04-06T03:24:17.816Z,40.00
2019-04-06T03:25:17.796Z,40.00
2019-04-06T03:26:17.799Z,40.00
2019-04-06T03:27:17.809Z,40.00
2019-04-06T03:28:17.790Z,40.00
2019-04-06T03:29:17.800Z,36.00
2019-04-06T03:30:17.941Z,40.00
2019-04-06T03:31:22.728Z,40.00
2019-04-06T03:32:17.888Z,44.00
2019-04-06T03:33:17.855Z,40.00
2019-04-06T03:34:21.593Z,40.00
2019-04-06T03:35:17.738Z,36.00
2019-04-06T03:36:17.726Z,36.00
2019-04-06T03:37:17.723Z,36.00
2019-04-06T03:38:17.708Z,36.00
2019-04-06T03:39:17.698Z,36.00
2019-04-06T03:40:17.829Z,40.00
2019-04-06T03:41:17.686Z,36.00
2019-04-06T03:42:17.675Z,40.00
2019-04-06T03:43:17.724Z,40.00
2019-04-06T03:44:17.668Z,36.00
2019-04-06T03:45:17.669Z,36.00
2019-04-06T03:46:17.654Z,36.00
2019-04-06T03:47:17.663Z,40.00
2019-04-06T03:48:17.638Z,40.00
2019-04-06T03:49:17.638Z,40.00
2019-04-06T03:50:17.627Z,44.00
2019-04-06T03:51:17.623Z,48.00
2019-04-06T03:52:17.612Z,52.00
2019-04-06T03:53:17.606Z,52.00
2019-04-06T03:54:17.613Z,52.00
2019-04-06T03:55:17.593Z,52.00
2019-04-06T03:56:17.733Z,52.00
2019-04-06T03:57:17.670Z,52.00
2019-04-06T03:58:17.567Z,56.00
2019-04-06T03:59:17.556Z,56.00
2019-04-06T04:00:17.562Z,56.00
2019-04-06T04:01:17.771Z,56.00
2019-04-06T04:02:17.597Z,56.00
2019-04-06T04:03:17.543Z,52.00
2019-04-06T04:04:17.601Z,48.00
2019-04-06T04:05:17.520Z,48.00
2019-04-06T04:06:17.512Z,48.00
2019-04-06T04:07:17.499Z,44.00
2019-04-06T04:08:17.487Z,44.00
2019-04-06T04:09:17.481Z,40.00
2019-04-06T04:10:17.487Z,44.00
2019-04-06T04:11:17.481Z,48.00
2019-04-06T04:12:17.466Z,56.00
2019-04-06T04:13:17.487Z,60.00
2019-04-06T04:14:17.455Z,56.00
2019-04-06T04:15:17.506Z,60.00
2019-04-06T04:16:17.433Z,60.00
2019-04-06T04:17:17.425Z,60.00
2019-04-06T04:18:17.425Z,64.00
2019-04-06T04:19:17.416Z,72.00
2019-04-06T04:20:17.396Z,72.00
2019-04-06T04:21:17.408Z,80.00
2019-04-06T04:22:17.392Z,76.00
2019-04-06T04:23:17.388Z,84.00
2019-04-06T04:24:17.400Z,76.00
2019-04-06T04:25:17.370Z,76.00
2019-04-06T04:26:17.371Z,72.00
2019-04-06T04:27:27.641Z,68.00
2019-04-06T04:28:17.364Z,60.00
2019-04-06T04:29:17.337Z,60.00
2019-04-06T04:30:30.768Z,64.00
2019-04-06T04:31:17.574Z,64.00
2019-04-06T04:32:17.324Z,60.00
2019-04-06T04:33:17.342Z,60.00
2019-04-06T04:34:17.469Z,60.00
2019-04-06T04:35:18.581Z,60.00
2019-04-06T04:36:17.282Z,60.00
2019-04-06T04:37:17.284Z,60.00
2019-04-06T04:38:17.317Z,64.00
2019-04-06T04:39:17.290Z,64.00
2019-04-06T04:40:17.259Z,68.00
2019-04-06T04:41:17.572Z,68.00
2019-04-06T04:42:17.242Z,64.00
2019-04-06T04:43:17.270Z,68.00
2019-04-06T04:44:17.233Z,68.00
2019-04-06T04:45:17.226Z,68.00
2019-04-06T04:46:17.216Z,68.00
2019-04-06T04:47:17.243Z,72.00
2019-04-06T04:48:17.196Z,72.00
2019-04-06T04:49:17.188Z,72.00
2019-04-06T04:50:17.198Z,72.00
2019-04-06T04:51:17.181Z,68.00
2019-04-06T04:52:17.172Z,68.00
2019-04-06T04:53:17.171Z,68.00
2019-04-06T04:54:17.148Z,68.00
2019-04-06T04:55:17.147Z,72.00
2019-04-06T04:56:17.141Z,72.00
2019-04-06T04:57:17.139Z,72.00
2019-04-06T04:58:17.135Z,68.00
2019-04-06T04:59:17.111Z,64.00
2019-04-06T05:00:17.118Z,64.00
2019-04-06T05:01:17.108Z,56.00
2019-04-06T05:02:17.101Z,64.00
2019-04-06T05:03:17.094Z,64.00
2019-04-06T05:04:17.085Z,68.00
2019-04-06T05:05:17.072Z,72.00
2019-04-06T05:06:17.078Z,76.00
2019-04-06T05:07:17.058Z,76.00
2019-04-06T05:08:17.104Z,80.00
2019-04-06T05:09:17.097Z,80.00
2019-04-06T05:10:17.044Z,84.00
2019-04-06T05:11:17.037Z,88.00
2019-04-06T05:12:17.028Z,92.00
2019-04-06T05:13:17.018Z,92.00
2019-04-06T05:14:17.007Z,92.00
2019-04-06T05:15:17.004Z,92.00
2019-04-06T05:16:16.994Z,96.00
2019-04-06T05:17:16.983Z,100.00
2019-04-06T05:18:16.984Z,100.00
2019-04-06T05:19:16.988Z,108.00
2019-04-06T05:20:16.974Z,108.00
2019-04-06T05:21:16.962Z,108.00
2019-04-06T05:22:16.948Z,104.00
2019-04-06T05:23:16.947Z,104.00
2019-04-06T05:24:16.939Z,104.00
2019-04-06T05:25:16.936Z,104.00
2019-04-06T05:26:16.933Z,108.00
2019-04-06T05:27:16.920Z,108.00
2019-04-06T05:28:16.906Z,108.00
2019-04-06T05:29:16.898Z,108.00
2019-04-06T05:30:16.895Z,104.00
2019-04-06T05:31:16.885Z,104.00
2019-04-06T05:32:16.879Z,104.00
2019-04-06T05:33:16.880Z,104.00
2019-04-06T05:34:16.901Z,104.00
2019-04-06T05:35:16.855Z,104.00
2019-04-06T05:36:16.850Z,108.00
2019-04-06T05:37:16.852Z,108.00
2019-04-06T05:38:16.844Z,108.00
2019-04-06T05:39:16.839Z,108.00
2019-04-06T05:40:16.828Z,104.00
2019-04-06T05:41:16.824Z,100.00
2019-04-06T05:42:16.886Z,96.00
2019-04-06T05:43:16.796Z,100.00
2019-04-06T05:44:16.798Z,96.00
2019-04-06T05:45:16.792Z,96.00
2019-04-06T05:46:16.853Z,96.00
2019-04-06T05:47:16.768Z,100.00
2019-04-06T05:48:16.770Z,96.00
2019-04-06T05:49:16.763Z,104.00
2019-04-06T05:50:16.760Z,100.00
2019-04-06T05:51:16.758Z,104.00
2019-04-06T05:52:16.736Z,100.00
2019-04-06T05:53:16.923Z,104.00
2019-04-06T05:54:16.787Z,112.00
2019-04-06T05:55:16.727Z,112.00
2019-04-06T05:56:16.800Z,116.00
2019-04-06T05:57:16.698Z,116.00
2019-04-06T05:58:16.699Z,116.00
2019-04-06T05:59:16.693Z,116.00
2019-04-06T06:00:16.671Z,112.00
2019-04-06T06:01:16.676Z,112.00
2019-04-06T06:02:16.664Z,108.00
2019-04-06T06:03:16.680Z,108.00
2019-04-06T06:04:16.648Z,108.00
2019-04-06T06:05:16.646Z,108.00
2019-04-06T06:06:16.633Z,104.00
2019-04-06T06:07:16.692Z,104.00
2019-04-06T06:08:16.682Z,108.00
2019-04-06T06:09:16.611Z,108.00
2019-04-06T06:10:16.609Z,104.00
2019-04-06T06:11:16.594Z,100.00
2019-04-06T06:12:16.598Z,104.00
2019-04-06T06:13:16.579Z,108.00
2019-04-06T06:14:16.571Z,116.00
2019-04-06T06:15:16.580Z,116.00
2019-04-06T06:16:16.594Z,116.00
2019-04-06T06:17:16.576Z,112.00
2019-04-06T06:18:25.651Z,112.00
2019-04-06T06:19:16.539Z,108.00
2019-04-06T06:20:16.529Z,108.00
2019-04-06T06:21:16.625Z,104.00
2019-04-06T06:22:16.518Z,112.00
2019-04-06T06:23:16.684Z,108.00
2019-04-06T06:24:16.506Z,112.00
2019-04-06T06:25:16.521Z,116.00
2019-04-06T06:26:16.495Z,116.00
2019-04-06T06:27:16.482Z,116.00
2019-04-06T06:28:16.475Z,116.00
2019-04-06T06:29:16.467Z,112.00
2019-04-06T06:30:16.571Z,108.00
2019-04-06T06:31:16.447Z,116.00
2019-04-06T06:32:16.451Z,112.00
2019-04-06T06:33:16.453Z,108.00
2019-04-06T06:34:16.436Z,108.00
2019-04-06T06:35:16.527Z,104.00
2019-04-06T06:36:16.450Z,104.00
2019-04-06T06:37:16.411Z,112.00
2019-04-06T06:38:16.408Z,112.00
2019-04-06T06:39:16.395Z,120.00
2019-04-06T06:40:16.382Z,124.00
2019-04-06T06:41:16.529Z,128.00
2019-04-06T06:42:16.391Z,136.00
2019-04-06T06:43:16.374Z,136.00
2019-04-06T06:44:16.363Z,140.00
2019-04-06T06:45:16.369Z,136.00
2019-04-06T06:46:16.345Z,132.00
2019-04-06T06:47:16.613Z,140.00
2019-04-06T06:48:16.380Z,140.00
2019-04-06T06:49:16.508Z,144.00
2019-04-06T06:50:16.459Z,144.00
2019-04-06T06:51:16.303Z,144.00
2019-04-06T06:52:16.304Z,144.00
2019-04-06T06:53:16.295Z,144.00
2019-04-06T06:54:16.286Z,144.00
2019-04-06T06:55:16.285Z,140.00
2019-04-06T06:56:16.271Z,144.00
2019-04-06T06:57:16.272Z,144.00
2019-04-06T06:58:24.645Z,140.00
2019-04-06T06:59:16.257Z,140.00
2019-04-06T07:00:16.241Z,136.00
2019-04-06T07:01:16.242Z,132.00
2019-04-06T07:02:16.235Z,136.00
2019-04-06T07:03:16.223Z,128.00
2019-04-06T07:04:16.209Z,128.00
2019-04-06T07:05:16.206Z,128.00
2019-04-06T07:06:16.207Z,128.00
2019-04-06T07:07:16.330Z,128.00
2019-04-06T07:08:16.182Z,124.00
2019-04-06T07:09:16.391Z,116.00
2019-04-06T07:10:16.170Z,116.00
2019-04-06T07:11:16.170Z,108.00
2019-04-06T07:12:16.210Z,108.00
2019-04-06T07:13:16.306Z,108.00
2019-04-06T07:14:16.187Z,108.00
2019-04-06T07:15:16.151Z,104.00
2019-04-06T07:16:16.134Z,104.00
2019-04-06T07:17:16.122Z,100.00
2019-04-06T07:18:16.290Z,100.00
2019-04-06T07:19:16.101Z,100.00
2019-04-06T07:20:16.094Z,96.00
2019-04-06T07:21:16.884Z,96.00
2019-04-06T07:22:16.092Z,92.00
2019-04-06T07:23:16.080Z,96.00
2019-04-06T07:24:16.073Z,96.00
2019-04-06T07:25:16.059Z,88.00
2019-04-06T07:26:16.056Z,96.00
2019-04-06T07:27:16.043Z,100.00
2019-04-06T07:28:16.038Z,100.00
2019-04-06T07:29:16.032Z,100.00
2019-04-06T07:30:16.033Z,100.00
2019-04-06T07:31:16.012Z,96.00
2019-04-06T07:32:16.013Z,92.00
2019-04-06T07:33:16.015Z,88.00
2019-04-06T07:34:16.085Z,84.00
2019-04-06T07:35:15.989Z,80.00
2019-04-06T07:36:15.986Z,80.00
2019-04-06T07:37:15.980Z,80.00
2019-04-06T07:38:15.965Z,80.00
2019-04-06T07:39:15.963Z,80.00
2019-04-06T07:40:15.959Z,76.00
2019-04-06T07:41:15.953Z,76.00
2019-04-06T07:42:15.947Z,76.00
2019-04-06T07:43:15.957Z,80.00
2019-04-06T07:44:15.920Z,80.00
2019-04-06T07:45:15.916Z,84.00
2019-04-06T07:46:15.907Z,84.00
2019-04-06T07:47:16.000Z,88.00
2019-04-06T07:48:15.898Z,88.00
2019-04-06T07:49:15.904Z,92.00
2019-04-06T07:50:15.882Z,92.00
2019-04-06T07:51:15.871Z,92.00
2019-04-06T07:52:15.868Z,88.00
2019-04-06T07:53:15.859Z,88.00
2019-04-06T07:54:15.857Z,84.00
2019-04-06T07:55:15.840Z,76.00
2019-04-06T07:56:15.856Z,72.00
2019-04-06T07:57:15.843Z,72.00
2019-04-06T07:58:15.937Z,68.00
2019-04-06T07:59:15.962Z,68.00
2019-04-06T08:00:16.072Z,72.00
2019-04-06T08:01:15.914Z,76.00
2019-04-06T08:02:15.802Z,76.00
2019-04-06T08:03:15.863Z,76.00
2019-04-06T08:04:15.785Z,76.00
2019-04-06T08:05:15.791Z,72.00
2019-04-06T08:06:15.767Z,72.00
2019-04-06T08:07:15.769Z,68.00
2019-04-06T08:08:15.762Z,64.00
2019-04-06T08:09:15.752Z,64.00
2019-04-06T08:10:15.935Z,64.00
2019-04-06T08:11:15.737Z,64.00
2019-04-06T08:12:15.725Z,64.00
2019-04-06T08:13:15.723Z,64.00
2019-04-06T08:14:15.964Z,60.00
2019-04-06T08:15:15.708Z,64.00
2019-04-06T08:16:15.786Z,56.00
2019-04-06T08:17:15.690Z,60.00
2019-04-06T08:18:15.761Z,60.00
2019-04-06T08:19:15.675Z,60.00
2019-04-06T08:20:16.487Z,56.00
2019-04-06T08:21:15.778Z,60.00
2019-04-06T08:22:15.647Z,60.00
2019-04-06T08:23:15.640Z,64.00
2019-04-06T08:24:15.639Z,60.00
2019-04-06T08:25:15.850Z,60.00
2019-04-06T08:26:15.627Z,56.00
2019-04-06T08:27:15.712Z,56.00
2019-04-06T08:28:15.605Z,56.00
2019-04-06T08:29:15.644Z,52.00
2019-04-06T08:30:15.600Z,48.00
2019-04-06T08:31:15.586Z,52.00
2019-04-06T08:32:15.587Z,44.00
2019-04-06T08:33:15.574Z,44.00
2019-04-06T08:34:15.740Z,48.00
2019-04-06T08:35:24.445Z,44.00
2019-04-06T08:36:15.805Z,48.00
2019-04-06T08:37:15.563Z,44.00
2019-04-06T08:38:15.538Z,44.00
2019-04-06T08:39:15.527Z,48.00
2019-04-06T08:40:15.537Z,48.00
2019-04-06T08:41:15.523Z,48.00
2019-04-06T08:42:15.507Z,48.00
2019-04-06T08:43:15.511Z,52.00
2019-04-06T08:44:15.537Z,52.00
2019-04-06T08:45:15.493Z,52.00
2019-04-06T08:46:15.484Z,56.00
2019-04-06T08:47:15.482Z,52.00
2019-04-06T08:48:15.640Z,56.00
2019-04-06T08:49:15.556Z,56.00
2019-04-06T08:50:15.454Z,56.00
2019-04-06T08:51:15.515Z,64.00
2019-04-06T08:52:15.438Z,64.00
2019-04-06T08:53:15.435Z,68.00
2019-04-06T08:54:15.422Z,72.00
2019-04-06T08:55:15.424Z,72.00
2019-04-06T08:56:15.530Z,72.00
2019-04-06T08:57:15.409Z,76.00
2019-04-06T08:58:15.441Z,80.00
2019-04-06T08:59:15.382Z,76.00
2019-04-06T09:00:15.384Z,80.00
2019-04-06T09:01:15.392Z,76.00
2019-04-06T09:02:15.413Z,76.00
2019-04-06T09:03:15.371Z,72.00
2019-04-06T09:04:15.473Z,72.00
2019-04-06T09:05:15.345Z,72.00
2019-04-06T09:06:15.340Z,68.00
2019-04-06T09:07:15.327Z,68.00
2019-04-06T09:08:15.432Z,68.00
2019-04-06T09:09:15.325Z,64.00
2019-04-06T09:10:15.306Z,64.00
2019-04-06T09:11:15.302Z,64.00
2019-04-06T09:12:15.310Z,64.00
2019-04-06T09:13:15.349Z,64.00
2019-04-06T09:14:15.285Z,64.00
2019-04-06T09:15:15.269Z,64.00
2019-04-06T09:16:15.538Z,60.00
2019-04-06T09:17:15.433Z,56.00
2019-04-06T09:18:15.253Z,52.00
2019-04-06T09:19:15.256Z,52.00
2019-04-06T09:20:15.253Z,48.00
2019-04-06T09:21:15.225Z,48.00
2019-04-06T09:22:15.224Z,48.00
2019-04-06T09:23:15.351Z,48.00
2019-04-06T09:24:15.427Z,48.00
2019-04-06T09:25:15.201Z,48.00
2019-04-06T09:26:15.211Z,52.00
2019-04-06T09:27:15.192Z,52.00
2019-04-06T09:28:15.184Z,52.00
2019-04-06T09:29:23.077Z,48.00
2019-04-06T09:30:15.171Z,48.00
2019-04-06T09:31:15.159Z,48.00
2019-04-06T09:32:15.214Z,44.00
2019-04-06T09:33:15.143Z,44.00
2019-04-06T09:34:15.138Z,44.00
2019-04-06T09:35:15.140Z,48.00
2019-04-06T09:36:15.129Z,48.00
2019-04-06T09:37:15.122Z,52.00
2019-04-06T09:38:15.265Z,52.00
2019-04-06T09:39:15.096Z,52.00
2019-04-06T09:40:15.158Z,48.00
2019-04-06T09:41:15.181Z,52.00
2019-04-06T09:42:15.081Z,48.00
2019-04-06T09:43:15.191Z,44.00
2019-04-06T09:44:15.076Z,48.00
2019-04-06T09:45:15.058Z,48.00
2019-04-06T09:46:15.050Z,44.00
2019-04-06T09:47:15.050Z,44.00
2019-04-06T09:48:15.041Z,44.00
2019-04-06T09:49:15.037Z,40.00
2019-04-06T09:50:15.028Z,40.00
2019-04-06T09:51:15.014Z,44.00
2019-04-06T09:52:15.019Z,44.00
2019-04-06T09:53:15.212Z,44.00
2019-04-06T09:54:14.989Z,44.00
2019-04-06T09:55:14.992Z,44.00
2019-04-06T09:56:14.983Z,40.00
2019-04-06T09:57:14.981Z,48.00
2019-04-06T09:58:14.966Z,44.00
2019-04-06T09:59:15.181Z,44.00
2019-04-06T10:00:15.136Z,44.00
2019-04-06T10:01:14.945Z,40.00
2019-04-06T10:02:14.957Z,44.00
2019-04-06T10:03:14.935Z,40.00
2019-04-06T10:04:14.924Z,40.00
2019-04-06T10:05:15.076Z,40.00
2019-04-06T10:06:14.918Z,40.00
2019-04-06T10:07:14.898Z,40.00
2019-04-06T10:08:14.898Z,40.00
2019-04-06T10:09:14.960Z,40.00
2019-04-06T10:10:14.889Z,36.00
2019-04-06T10:11:14.871Z,40.00
2019-04-06T10:12:14.868Z,36.00
2019-04-06T10:13:14.871Z,40.00
2019-04-06T10:14:15.090Z,40.00
2019-04-06T10:15:15.034Z,32.00
2019-04-06T10:16:14.848Z,32.00
2019-04-06T10:17:14.831Z,28.00
2019-04-06T10:18:15.031Z,28.00
2019-04-06T10:19:14.869Z,28.00
2019-04-06T10:20:14.811Z,24.00
2019-04-06T10:21:14.795Z,24.00
2019-04-06T10:22:14.793Z,24.00
2019-04-06T10:23:14.790Z,24.00
2019-04-06T10:24:14.781Z,20.00
2019-04-06T10:25:14.772Z,20.00
2019-04-06T10:26:14.773Z,20.00
2019-04-06T10:27:14.755Z,20.00
2019-04-06T10:28:14.806Z,20.00
2019-04-06T10:29:14.766Z,24.00
2019-04-06T10:30:14.742Z,20.00
2019-04-06T10:31:14.855Z,20.00
2019-04-06T10:32:14.740Z,20.00
2019-04-06T10:33:14.713Z,20.00
2019-04-06T10:34:14.703Z,16.00
2019-04-06T10:35:14.703Z,16.00
2019-04-06T10:36:14.715Z,12.00
2019-04-06T10:37:14.687Z,16.00
2019-04-06T10:38:16.293Z,16.00
2019-04-06T10:39:14.832Z,16.00
2019-04-06T10:40:14.665Z,12.00
2019-04-06T10:41:14.657Z,16.00
2019-04-06T10:42:14.670Z,12.00
2019-04-06T10:43:14.640Z,16.00
2019-04-06T10:44:14.638Z,16.00
2019-04-06T10:45:14.636Z,16.00
2019-04-06T10:46:14.860Z,16.00
2019-04-06T10:47:14.616Z,12.00
2019-04-06T10:48:14.614Z,16.00
2019-04-06T10:49:14.609Z,12.00
2019-04-06T10:50:14.603Z,12.00
2019-04-06T10:51:14.582Z,12.00
2019-04-06T10:52:14.585Z,12.00
2019-04-06T10:53:14.582Z,12.00
2019-04-06T10:54:14.566Z,12.00
2019-04-06T10:55:14.556Z,8.00
2019-04-06T10:56:14.551Z,12.00
2019-04-06T10:57:14.541Z,8.00
2019-04-06T10:58:14.545Z,8.00
2019-04-06T10:59:14.524Z,8.00
2019-04-06T11:00:14.529Z,8.00
2019-04-06T11:01:14.519Z,4.00
2019-04-06T11:02:14.747Z,8.00
2019-04-06T11:03:14.517Z,8.00
2019-04-06T11:04:14.501Z,4.00
2019-04-06T11:05:14.483Z,4.00
2019-04-06T11:06:14.483Z,8.00
2019-04-06T11:07:14.477Z,8.00
2019-04-06T11:08:14.468Z,4.00
2019-04-06T11:09:14.527Z,4.00
2019-04-06T11:10:14.453Z,4.00
2019-04-06T11:11:17.009Z,4.00
2019-04-06T11:12:14.465Z,4.00
2019-04-06T11:13:14.536Z,4.00
2019-04-06T11:14:14.489Z,4.00
2019-04-06T11:15:14.422Z,4.00
2019-04-06T11:16:14.637Z,4.00
2019-04-06T11:17:14.408Z,0.00
2019-04-06T11:18:14.397Z,0.00
2019-04-06T11:19:14.383Z,0.00
2019-04-06T11:20:14.383Z,0.00
2019-04-06T11:21:14.424Z,0.00
2019-04-06T11:22:16.857Z,0.00
2019-04-06T11:23:14.363Z,4.00
2019-04-06T11:24:14.346Z,4.00
2019-04-06T11:25:14.348Z,4.00
2019-04-06T11:26:14.337Z,4.00
2019-04-06T11:27:14.329Z,0.00
2019-04-06T11:28:14.316Z,0.00
2019-04-06T11:29:14.324Z,0.00
2019-04-06T11:30:15.405Z,0.00
2019-04-06T11:31:14.314Z,0.00
2019-04-06T11:32:14.475Z,0.00
2019-04-06T11:33:14.286Z,0.00
2019-04-06T11:34:14.280Z,0.00
2019-04-06T11:35:14.272Z,0.00
2019-04-06T11:36:14.520Z,0.00
2019-04-06T11:37:14.253Z,0.00
2019-04-06T11:38:14.270Z,0.00
2019-04-06T11:39:14.247Z,0.00
2019-04-06T11:40:14.232Z,0.00
2019-04-06T11:41:14.402Z,0.00
2019-04-06T11:42:14.220Z,0.00
2019-04-06T11:43:14.223Z,0.00
2019-04-06T11:44:14.213Z,0.00
2019-04-06T11:45:14.297Z,0.00
2019-04-06T11:46:14.191Z,0.00
2019-04-06T11:47:14.192Z,0.00
2019-04-06T11:48:14.180Z,0.00
2019-04-06T11:49:14.168Z,0.00
2019-04-06T11:50:14.168Z,0.00
2019-04-06T11:51:14.208Z,0.00
2019-04-06T11:52:14.147Z,0.00
2019-04-06T11:53:14.146Z,0.00
2019-04-06T11:54:14.140Z,0.00
2019-04-06T11:55:14.134Z,0.00
2019-04-06T11:56:14.114Z,0.00
2019-04-06T11:57:14.274Z,0.00
2019-04-06T11:58:14.106Z,0.00
2019-04-06T11:59:14.311Z,0.00
2019-04-06T12:00:24.491Z,0.00
2019-04-06T12:01:14.082Z,0.00
2019-04-06T12:02:14.084Z,0.00
2019-04-06T12:03:14.374Z,0.00
2019-04-06T12:04:14.060Z,0.00
2019-04-06T12:05:14.058Z,0.00
2019-04-06T12:06:14.354Z,0.00
2019-04-06T12:07:14.039Z,0.00
2019-04-06T12:08:14.042Z,0.00
2019-04-06T12:09:14.025Z,0.00
2019-04-06T12:10:14.022Z,0.00
2019-04-06T12:11:14.196Z,0.00
2019-04-06T12:12:14.009Z,0.00
2019-04-06T12:13:13.998Z,0.00
2019-04-06T12:14:14.221Z,0.00
2019-04-06T12:15:13.981Z,0.00
2019-04-06T12:16:13.978Z,0.00
2019-04-06T12:17:14.318Z,0.00
2019-04-06T12:18:14.290Z,0.00
2019-04-06T12:19:14.081Z,0.00
2019-04-06T12:20:14.106Z,0.00
2019-04-06T12:21:13.943Z,0.00
2019-04-06T12:22:13.933Z,0.00
2019-04-06T12:23:14.094Z,0.00
2019-04-06T12:24:13.918Z,0.00
2019-04-06T12:25:13.907Z,0.00
2019-04-06T12:26:13.911Z,0.00
2019-04-06T12:27:14.157Z,0.00
2019-04-06T12:28:13.888Z,0.00
2019-04-06T12:29:16.202Z,0.00
2019-04-06T12:30:14.150Z,0.00
2019-04-06T12:31:14.098Z,0.00
2019-04-06T12:32:13.861Z,0.00
2019-04-06T12:33:13.859Z,0.00
2019-04-06T12:34:13.850Z,0.00
2019-04-06T12:35:14.145Z,0.00
2019-04-06T12:36:13.909Z,0.00
2019-04-06T12:37:13.825Z,0.00
2019-04-06T12:38:14.114Z,0.00
2019-04-06T12:39:14.131Z,0.00
2019-04-06T12:40:13.808Z,0.00
2019-04-06T12:41:13.790Z,0.00
2019-04-06T12:42:14.035Z,0.00
2019-04-06T12:43:13.777Z,0.00
2019-04-06T12:44:13.775Z,0.00
2019-04-06T12:45:13.850Z,0.00
2019-04-06T12:46:13.768Z,0.00
2019-04-06T12:47:13.843Z,0.00
2019-04-06T12:48:13.748Z,108.00
2019-04-06T12:49:13.749Z,156.00
2019-04-06T12:50:13.735Z,168.00
2019-04-06T12:51:13.863Z,0.00
2019-04-06T12:52:13.710Z,0.00